Aviation Digital Data Service (ADDS)

Output produced by METARs form (0609 UTC 25 June 2018)
found at http://www.aviationweather.gov/adds/metars/
 
SMJP 250600Z 18002KT 9999 SCT010 SCT020 23/22 Q1013 NOSIG
TAF SMJP 250400Z 2506/2606 VRB02KT FEW007 BKN030 TX30/2517Z TN23/2510Z 
     TEMPO 2506/2512 12008KT 4000 SHRA FEW015CB 
     PROB40 
     TEMPO 2517/2521 VRB12G22KT 2500 TSRA SCT015CB SCT018 
     FM252300 04004KT 9999 FEW010 SCT025